sensor_id;sensor_type;location;lat;lon;timestamp;P1;durP1;ratioP1;P2;durP2;ratioP2
60370;SDS011;48550;40.588;49.684;2023-07-31T00:01:52;6.15;;;2.30;;
60370;SDS011;48550;40.588;49.684;2023-07-31T00:04:18;5.07;;;2.15;;
60370;SDS011;48550;40.588;49.684;2023-07-31T00:06:43;5.30;;;2.30;;
60370;SDS011;48550;40.588;49.684;2023-07-31T00:09:08;3.45;;;2.10;;
60370;SDS011;48550;40.588;49.684;2023-07-31T00:11:34;7.03;;;2.50;;
60370;SDS011;48550;40.588;49.684;2023-07-31T00:13:59;3.88;;;2.20;;
60370;SDS011;48550;40.588;49.684;2023-07-31T00:16:25;5.13;;;2.30;;
60370;SDS011;48550;40.588;49.684;2023-07-31T00:18:50;6.25;;;2.40;;
60370;SDS011;48550;40.588;49.684;2023-07-31T00:21:16;7.63;;;2.13;;
60370;SDS011;48550;40.588;49.684;2023-07-31T00:23:41;6.47;;;2.38;;
60370;SDS011;48550;40.588;49.684;2023-07-31T00:26:07;6.93;;;2.28;;
60370;SDS011;48550;40.588;49.684;2023-07-31T00:28:32;5.68;;;2.30;;
60370;SDS011;48550;40.588;49.684;2023-07-31T00:30:58;6.38;;;2.38;;
60370;SDS011;48550;40.588;49.684;2023-07-31T00:33:23;6.03;;;2.35;;
60370;SDS011;48550;40.588;49.684;2023-07-31T00:35:49;4.88;;;2.47;;
60370;SDS011;48550;40.588;49.684;2023-07-31T00:38:14;7.07;;;2.90;;
60370;SDS011;48550;40.588;49.684;2023-07-31T00:40:39;6.00;;;2.40;;
60370;SDS011;48550;40.588;49.684;2023-07-31T00:43:05;6.25;;;2.80;;
60370;SDS011;48550;40.588;49.684;2023-07-31T00:45:31;5.05;;;2.40;;
60370;SDS011;48550;40.588;49.684;2023-07-31T00:47:56;5.22;;;2.13;;
60370;SDS011;48550;40.588;49.684;2023-07-31T00:50:23;4.85;;;2.60;;
60370;SDS011;48550;40.588;49.684;2023-07-31T00:52:49;8.65;;;2.75;;
60370;SDS011;48550;40.588;49.684;2023-07-31T00:55:14;4.90;;;2.30;;
60370;SDS011;48550;40.588;49.684;2023-07-31T00:57:40;5.28;;;2.30;;
60370;SDS011;48550;40.588;49.684;2023-07-31T01:00:06;4.55;;;2.10;;
60370;SDS011;48550;40.588;49.684;2023-07-31T01:02:32;4.57;;;2.35;;
60370;SDS011;48550;40.588;49.684;2023-07-31T01:04:58;5.72;;;2.50;;
60370;SDS011;48550;40.588;49.684;2023-07-31T01:07:27;4.68;;;2.22;;
60370;SDS011;48550;40.588;49.684;2023-07-31T01:12:21;4.73;;;2.27;;
60370;SDS011;48550;40.588;49.684;2023-07-31T01:15:04;5.10;;;2.60;;
60370;SDS011;48550;40.588;49.684;2023-07-31T01:17:29;3.50;;;2.40;;
60370;SDS011;48550;40.588;49.684;2023-07-31T01:19:55;4.97;;;2.40;;
60370;SDS011;48550;40.588;49.684;2023-07-31T01:22:26;4.78;;;2.22;;
60370;SDS011;48550;40.588;49.684;2023-07-31T01:27:34;9.25;;;2.50;;
60370;SDS011;48550;40.588;49.684;2023-07-31T01:32:36;4.93;;;2.30;;
60370;SDS011;48550;40.588;49.684;2023-07-31T01:35:01;4.22;;;2.10;;
60370;SDS011;48550;40.588;49.684;2023-07-31T01:37:28;5.82;;;2.30;;
60370;SDS011;48550;40.588;49.684;2023-07-31T01:39:54;4.80;;;2.47;;
60370;SDS011;48550;40.588;49.684;2023-07-31T01:42:19;4.72;;;2.20;;
60370;SDS011;48550;40.588;49.684;2023-07-31T01:44:45;6.13;;;2.63;;
60370;SDS011;48550;40.588;49.684;2023-07-31T01:47:10;4.50;;;2.10;;
60370;SDS011;48550;40.588;49.684;2023-07-31T01:49:36;5.05;;;2.30;;
60370;SDS011;48550;40.588;49.684;2023-07-31T01:52:01;6.43;;;2.88;;
60370;SDS011;48550;40.588;49.684;2023-07-31T01:54:26;10.57;;;2.60;;
60370;SDS011;48550;40.588;49.684;2023-07-31T01:56:52;3.00;;;2.00;;
60370;SDS011;48550;40.588;49.684;2023-07-31T01:59:17;6.13;;;2.03;;
60370;SDS011;48550;40.588;49.684;2023-07-31T02:01:43;4.75;;;2.33;;
60370;SDS011;48550;40.588;49.684;2023-07-31T02:04:08;5.35;;;2.28;;
60370;SDS011;48550;40.588;49.684;2023-07-31T02:06:34;6.38;;;2.53;;
60370;SDS011;48550;40.588;49.684;2023-07-31T02:08:59;8.10;;;2.72;;
60370;SDS011;48550;40.588;49.684;2023-07-31T02:11:25;5.75;;;2.25;;
60370;SDS011;48550;40.588;49.684;2023-07-31T02:13:50;5.57;;;2.10;;
60370;SDS011;48550;40.588;49.684;2023-07-31T02:16:15;5.47;;;2.00;;
60370;SDS011;48550;40.588;49.684;2023-07-31T02:18:41;3.92;;;2.22;;
60370;SDS011;48550;40.588;49.684;2023-07-31T02:21:06;6.10;;;2.50;;
60370;SDS011;48550;40.588;49.684;2023-07-31T02:23:32;7.07;;;2.10;;
60370;SDS011;48550;40.588;49.684;2023-07-31T02:25:57;5.88;;;2.10;;
60370;SDS011;48550;40.588;49.684;2023-07-31T02:28:23;9.30;;;2.35;;
60370;SDS011;48550;40.588;49.684;2023-07-31T02:30:49;5.05;;;2.33;;
60370;SDS011;48550;40.588;49.684;2023-07-31T02:33:15;7.22;;;2.40;;
60370;SDS011;48550;40.588;49.684;2023-07-31T02:35:41;7.15;;;2.45;;
60370;SDS011;48550;40.588;49.684;2023-07-31T02:38:07;7.40;;;2.50;;
60370;SDS011;48550;40.588;49.684;2023-07-31T02:40:32;4.72;;;2.10;;
60370;SDS011;48550;40.588;49.684;2023-07-31T02:42:58;9.35;;;2.83;;
60370;SDS011;48550;40.588;49.684;2023-07-31T02:45:23;6.45;;;2.38;;
60370;SDS011;48550;40.588;49.684;2023-07-31T02:47:48;5.88;;;2.13;;
60370;SDS011;48550;40.588;49.684;2023-07-31T02:50:14;7.57;;;2.50;;
60370;SDS011;48550;40.588;49.684;2023-07-31T02:52:39;5.18;;;2.35;;
60370;SDS011;48550;40.588;49.684;2023-07-31T02:55:05;8.05;;;2.42;;
60370;SDS011;48550;40.588;49.684;2023-07-31T02:57:31;9.77;;;2.60;;
60370;SDS011;48550;40.588;49.684;2023-07-31T02:59:56;6.88;;;2.50;;
60370;SDS011;48550;40.588;49.684;2023-07-31T03:02:22;4.13;;;2.25;;
60370;SDS011;48550;40.588;49.684;2023-07-31T03:04:47;7.18;;;2.45;;
60370;SDS011;48550;40.588;49.684;2023-07-31T03:07:13;9.70;;;4.22;;
60370;SDS011;48550;40.588;49.684;2023-07-31T03:09:38;5.72;;;3.47;;
60370;SDS011;48550;40.588;49.684;2023-07-31T03:12:04;9.45;;;3.30;;
60370;SDS011;48550;40.588;49.684;2023-07-31T03:14:29;5.32;;;2.47;;
60370;SDS011;48550;40.588;49.684;2023-07-31T03:16:55;9.15;;;3.08;;
60370;SDS011;48550;40.588;49.684;2023-07-31T03:19:20;7.97;;;2.83;;
60370;SDS011;48550;40.588;49.684;2023-07-31T03:21:46;7.80;;;3.25;;
60370;SDS011;48550;40.588;49.684;2023-07-31T03:24:11;6.97;;;3.00;;
60370;SDS011;48550;40.588;49.684;2023-07-31T03:26:40;11.25;;;3.90;;
60370;SDS011;48550;40.588;49.684;2023-07-31T03:29:07;10.70;;;4.80;;
60370;SDS011;48550;40.588;49.684;2023-07-31T03:31:32;6.40;;;3.13;;
60370;SDS011;48550;40.588;49.684;2023-07-31T03:33:58;6.60;;;3.03;;
60370;SDS011;48550;40.588;49.684;2023-07-31T03:36:23;8.32;;;2.45;;
60370;SDS011;48550;40.588;49.684;2023-07-31T03:38:48;10.25;;;3.10;;
60370;SDS011;48550;40.588;49.684;2023-07-31T03:41:14;5.38;;;2.80;;
60370;SDS011;48550;40.588;49.684;2023-07-31T03:43:39;6.60;;;2.35;;
60370;SDS011;48550;40.588;49.684;2023-07-31T03:46:05;5.78;;;2.70;;
60370;SDS011;48550;40.588;49.684;2023-07-31T03:48:30;4.70;;;2.17;;
60370;SDS011;48550;40.588;49.684;2023-07-31T03:50:56;5.40;;;2.10;;
60370;SDS011;48550;40.588;49.684;2023-07-31T03:53:21;6.07;;;2.80;;
60370;SDS011;48550;40.588;49.684;2023-07-31T03:55:46;4.63;;;2.00;;
60370;SDS011;48550;40.588;49.684;2023-07-31T03:58:12;10.85;;;2.42;;
60370;SDS011;48550;40.588;49.684;2023-07-31T04:00:39;5.75;;;2.90;;
60370;SDS011;48550;40.588;49.684;2023-07-31T04:03:05;6.95;;;3.47;;
60370;SDS011;48550;40.588;49.684;2023-07-31T04:05:31;6.85;;;3.05;;
60370;SDS011;48550;40.588;49.684;2023-07-31T04:07:57;7.32;;;2.83;;
60370;SDS011;48550;40.588;49.684;2023-07-31T04:10:22;5.93;;;2.30;;
60370;SDS011;48550;40.588;49.684;2023-07-31T04:12:48;5.20;;;2.35;;
60370;SDS011;48550;40.588;49.684;2023-07-31T04:15:13;8.00;;;3.47;;
60370;SDS011;48550;40.588;49.684;2023-07-31T04:17:39;12.55;;;5.13;;
60370;SDS011;48550;40.588;49.684;2023-07-31T04:20:04;5.57;;;3.17;;
60370;SDS011;48550;40.588;49.684;2023-07-31T04:22:30;6.68;;;2.63;;
60370;SDS011;48550;40.588;49.684;2023-07-31T04:24:55;5.53;;;2.92;;
60370;SDS011;48550;40.588;49.684;2023-07-31T04:27:21;8.52;;;3.17;;
60370;SDS011;48550;40.588;49.684;2023-07-31T04:29:46;8.02;;;2.97;;
60370;SDS011;48550;40.588;49.684;2023-07-31T04:32:12;7.55;;;2.63;;
60370;SDS011;48550;40.588;49.684;2023-07-31T04:34:38;11.75;;;3.10;;
60370;SDS011;48550;40.588;49.684;2023-07-31T04:37:03;6.88;;;2.20;;
60370;SDS011;48550;40.588;49.684;2023-07-31T04:39:29;6.07;;;2.35;;
60370;SDS011;48550;40.588;49.684;2023-07-31T04:41:54;5.47;;;2.38;;
60370;SDS011;48550;40.588;49.684;2023-07-31T04:44:20;10.45;;;3.22;;
60370;SDS011;48550;40.588;49.684;2023-07-31T04:46:45;6.38;;;2.60;;
60370;SDS011;48550;40.588;49.684;2023-07-31T04:49:11;9.75;;;2.40;;
60370;SDS011;48550;40.588;49.684;2023-07-31T04:51:37;7.45;;;2.55;;
60370;SDS011;48550;40.588;49.684;2023-07-31T04:54:02;5.22;;;2.00;;
60370;SDS011;48550;40.588;49.684;2023-07-31T04:56:28;8.13;;;3.55;;
60370;SDS011;48550;40.588;49.684;2023-07-31T04:58:53;4.63;;;2.05;;
60370;SDS011;48550;40.588;49.684;2023-07-31T05:01:18;10.43;;;2.50;;
60370;SDS011;48550;40.588;49.684;2023-07-31T05:03:44;5.68;;;2.33;;
60370;SDS011;48550;40.588;49.684;2023-07-31T05:06:09;6.65;;;2.50;;
60370;SDS011;48550;40.588;49.684;2023-07-31T05:08:35;12.55;;;2.78;;
60370;SDS011;48550;40.588;49.684;2023-07-31T05:11:00;6.30;;;2.55;;
60370;SDS011;48550;40.588;49.684;2023-07-31T05:13:26;11.13;;;3.42;;
60370;SDS011;48550;40.588;49.684;2023-07-31T05:15:51;5.78;;;2.50;;
60370;SDS011;48550;40.588;49.684;2023-07-31T05:18:17;7.10;;;2.42;;
60370;SDS011;48550;40.588;49.684;2023-07-31T05:20:42;7.78;;;3.05;;
60370;SDS011;48550;40.588;49.684;2023-07-31T05:23:08;6.10;;;3.05;;
60370;SDS011;48550;40.588;49.684;2023-07-31T05:25:33;8.73;;;2.40;;
60370;SDS011;48550;40.588;49.684;2023-07-31T05:27:59;6.65;;;3.63;;
60370;SDS011;48550;40.588;49.684;2023-07-31T05:30:24;7.50;;;2.60;;
60370;SDS011;48550;40.588;49.684;2023-07-31T05:32:50;7.63;;;2.75;;
60370;SDS011;48550;40.588;49.684;2023-07-31T05:35:15;5.47;;;2.33;;
60370;SDS011;48550;40.588;49.684;2023-07-31T05:37:41;7.65;;;2.20;;
60370;SDS011;48550;40.588;49.684;2023-07-31T05:40:06;6.88;;;2.20;;
60370;SDS011;48550;40.588;49.684;2023-07-31T05:42:32;4.85;;;2.42;;
60370;SDS011;48550;40.588;49.684;2023-07-31T05:44:57;5.25;;;2.08;;
60370;SDS011;48550;40.588;49.684;2023-07-31T05:47:23;6.65;;;2.15;;
60370;SDS011;48550;40.588;49.684;2023-07-31T05:49:49;8.50;;;2.40;;
60370;SDS011;48550;40.588;49.684;2023-07-31T05:52:16;7.50;;;2.20;;
60370;SDS011;48550;40.588;49.684;2023-07-31T05:54:42;4.07;;;1.90;;
60370;SDS011;48550;40.588;49.684;2023-07-31T05:57:07;8.25;;;2.33;;
60370;SDS011;48550;40.588;49.684;2023-07-31T05:59:33;3.55;;;1.83;;
60370;SDS011;48550;40.588;49.684;2023-07-31T06:01:58;6.78;;;1.85;;
60370;SDS011;48550;40.588;49.684;2023-07-31T06:04:24;7.68;;;2.30;;
60370;SDS011;48550;40.588;49.684;2023-07-31T06:06:50;4.85;;;2.03;;
60370;SDS011;48550;40.588;49.684;2023-07-31T06:09:16;3.83;;;2.00;;
60370;SDS011;48550;40.588;49.684;2023-07-31T06:11:41;6.43;;;2.00;;
60370;SDS011;48550;40.588;49.684;2023-07-31T06:14:07;7.60;;;2.20;;
60370;SDS011;48550;40.588;49.684;2023-07-31T06:16:32;5.40;;;2.15;;
60370;SDS011;48550;40.588;49.684;2023-07-31T06:18:58;5.03;;;2.10;;
60370;SDS011;48550;40.588;49.684;2023-07-31T06:21:23;5.88;;;2.00;;
60370;SDS011;48550;40.588;49.684;2023-07-31T06:23:49;5.25;;;2.33;;
60370;SDS011;48550;40.588;49.684;2023-07-31T06:26:14;7.53;;;2.20;;
60370;SDS011;48550;40.588;49.684;2023-07-31T06:28:40;6.82;;;2.38;;
60370;SDS011;48550;40.588;49.684;2023-07-31T06:31:05;5.95;;;2.17;;
60370;SDS011;48550;40.588;49.684;2023-07-31T06:33:30;12.48;;;2.20;;
60370;SDS011;48550;40.588;49.684;2023-07-31T06:35:56;8.95;;;2.33;;
60370;SDS011;48550;40.588;49.684;2023-07-31T06:38:22;7.90;;;2.33;;
60370;SDS011;48550;40.588;49.684;2023-07-31T06:40:49;4.45;;;1.95;;
60370;SDS011;48550;40.588;49.684;2023-07-31T06:43:14;4.00;;;1.90;;
60370;SDS011;48550;40.588;49.684;2023-07-31T06:45:40;7.45;;;2.22;;
60370;SDS011;48550;40.588;49.684;2023-07-31T06:48:05;7.32;;;2.58;;
60370;SDS011;48550;40.588;49.684;2023-07-31T06:50:31;15.23;;;2.60;;
60370;SDS011;48550;40.588;49.684;2023-07-31T06:52:56;8.20;;;2.58;;
60370;SDS011;48550;40.588;49.684;2023-07-31T06:55:22;4.63;;;1.80;;
60370;SDS011;48550;40.588;49.684;2023-07-31T06:57:49;9.77;;;2.08;;
60370;SDS011;48550;40.588;49.684;2023-07-31T07:00:14;6.82;;;2.15;;
60370;SDS011;48550;40.588;49.684;2023-07-31T07:02:40;7.50;;;2.00;;
60370;SDS011;48550;40.588;49.684;2023-07-31T07:05:06;7.75;;;2.25;;
60370;SDS011;48550;40.588;49.684;2023-07-31T07:07:32;6.07;;;2.20;;
60370;SDS011;48550;40.588;49.684;2023-07-31T07:09:57;8.98;;;2.28;;
60370;SDS011;48550;40.588;49.684;2023-07-31T07:12:24;10.48;;;4.90;;
60370;SDS011;48550;40.588;49.684;2023-07-31T07:14:50;6.50;;;2.67;;
60370;SDS011;48550;40.588;49.684;2023-07-31T07:17:18;8.90;;;4.88;;
60370;SDS011;48550;40.588;49.684;2023-07-31T07:19:43;14.27;;;4.38;;
60370;SDS011;48550;40.588;49.684;2023-07-31T07:22:09;8.05;;;2.47;;
60370;SDS011;48550;40.588;49.684;2023-07-31T07:24:35;8.40;;;4.07;;
60370;SDS011;48550;40.588;49.684;2023-07-31T07:27:00;7.07;;;2.58;;
60370;SDS011;48550;40.588;49.684;2023-07-31T07:29:26;4.63;;;2.33;;
60370;SDS011;48550;40.588;49.684;2023-07-31T07:31:51;10.38;;;2.55;;
60370;SDS011;48550;40.588;49.684;2023-07-31T07:34:17;7.20;;;2.40;;
60370;SDS011;48550;40.588;49.684;2023-07-31T07:36:42;13.27;;;2.90;;
60370;SDS011;48550;40.588;49.684;2023-07-31T07:39:09;6.80;;;2.53;;
60370;SDS011;48550;40.588;49.684;2023-07-31T07:41:35;6.03;;;2.45;;
60370;SDS011;48550;40.588;49.684;2023-07-31T07:44:00;7.53;;;2.55;;
60370;SDS011;48550;40.588;49.684;2023-07-31T07:46:26;5.57;;;2.30;;
60370;SDS011;48550;40.588;49.684;2023-07-31T07:48:51;5.28;;;2.20;;
60370;SDS011;48550;40.588;49.684;2023-07-31T07:51:17;7.47;;;2.25;;
60370;SDS011;48550;40.588;49.684;2023-07-31T07:53:42;3.50;;;1.92;;
60370;SDS011;48550;40.588;49.684;2023-07-31T07:56:08;5.47;;;2.17;;
60370;SDS011;48550;40.588;49.684;2023-07-31T07:58:33;11.25;;;3.08;;
60370;SDS011;48550;40.588;49.684;2023-07-31T08:00:58;10.38;;;2.60;;
60370;SDS011;48550;40.588;49.684;2023-07-31T08:03:24;8.68;;;2.45;;
60370;SDS011;48550;40.588;49.684;2023-07-31T08:05:49;5.72;;;2.55;;
60370;SDS011;48550;40.588;49.684;2023-07-31T08:08:15;7.03;;;2.65;;
60370;SDS011;48550;40.588;49.684;2023-07-31T08:10:44;6.53;;;2.47;;
60370;SDS011;48550;40.588;49.684;2023-07-31T08:13:10;16.02;;;3.35;;
60370;SDS011;48550;40.588;49.684;2023-07-31T08:15:36;9.02;;;2.92;;
60370;SDS011;48550;40.588;49.684;2023-07-31T08:18:01;6.78;;;2.90;;
60370;SDS011;48550;40.588;49.684;2023-07-31T08:20:27;6.25;;;2.80;;
60370;SDS011;48550;40.588;49.684;2023-07-31T08:22:52;10.15;;;3.00;;
60370;SDS011;48550;40.588;49.684;2023-07-31T08:25:18;11.07;;;2.90;;
60370;SDS011;48550;40.588;49.684;2023-07-31T08:27:44;10.05;;;2.40;;
60370;SDS011;48550;40.588;49.684;2023-07-31T08:30:10;10.95;;;2.75;;
60370;SDS011;48550;40.588;49.684;2023-07-31T08:32:35;6.60;;;2.95;;
60370;SDS011;48550;40.588;49.684;2023-07-31T08:35:01;7.00;;;2.55;;
60370;SDS011;48550;40.588;49.684;2023-07-31T08:37:27;9.95;;;2.70;;
60370;SDS011;48550;40.588;49.684;2023-07-31T08:39:53;11.02;;;2.60;;
60370;SDS011;48550;40.588;49.684;2023-07-31T08:42:19;8.85;;;2.60;;
60370;SDS011;48550;40.588;49.684;2023-07-31T08:44:45;6.43;;;2.65;;
60370;SDS011;48550;40.588;49.684;2023-07-31T08:47:11;7.22;;;2.95;;
60370;SDS011;48550;40.588;49.684;2023-07-31T08:49:37;6.15;;;2.45;;
60370;SDS011;48550;40.588;49.684;2023-07-31T08:52:04;16.05;;;8.68;;
60370;SDS011;48550;40.588;49.684;2023-07-31T08:54:29;8.73;;;3.83;;
60370;SDS011;48550;40.588;49.684;2023-07-31T08:56:56;8.15;;;3.00;;
60370;SDS011;48550;40.588;49.684;2023-07-31T08:59:22;8.35;;;3.20;;
60370;SDS011;48550;40.588;49.684;2023-07-31T09:01:49;7.88;;;3.20;;
60370;SDS011;48550;40.588;49.684;2023-07-31T09:04:15;8.48;;;2.85;;
60370;SDS011;48550;40.588;49.684;2023-07-31T09:06:42;7.72;;;3.00;;
60370;SDS011;48550;40.588;49.684;2023-07-31T09:09:07;12.55;;;3.10;;
60370;SDS011;48550;40.588;49.684;2023-07-31T09:11:34;7.90;;;2.83;;
60370;SDS011;48550;40.588;49.684;2023-07-31T09:13:59;7.43;;;2.60;;
60370;SDS011;48550;40.588;49.684;2023-07-31T09:16:29;6.65;;;3.00;;
60370;SDS011;48550;40.588;49.684;2023-07-31T09:18:58;14.15;;;3.17;;
60370;SDS011;48550;40.588;49.684;2023-07-31T09:21:26;13.52;;;3.38;;
60370;SDS011;48550;40.588;49.684;2023-07-31T09:23:53;8.63;;;3.10;;
60370;SDS011;48550;40.588;49.684;2023-07-31T09:26:29;8.80;;;3.35;;
60370;SDS011;48550;40.588;49.684;2023-07-31T09:28:55;9.13;;;2.92;;
60370;SDS011;48550;40.588;49.684;2023-07-31T09:31:33;10.38;;;3.60;;
60370;SDS011;48550;40.588;49.684;2023-07-31T09:36:31;8.00;;;3.80;;
60370;SDS011;48550;40.588;49.684;2023-07-31T09:39:01;7.75;;;2.78;;
60370;SDS011;48550;40.588;49.684;2023-07-31T09:41:27;9.68;;;2.90;;
60370;SDS011;48550;40.588;49.684;2023-07-31T09:43:55;14.32;;;3.00;;
60370;SDS011;48550;40.588;49.684;2023-07-31T09:46:21;10.73;;;3.05;;
60370;SDS011;48550;40.588;49.684;2023-07-31T09:48:47;7.93;;;3.08;;
60370;SDS011;48550;40.588;49.684;2023-07-31T09:51:12;10.98;;;3.15;;
60370;SDS011;48550;40.588;49.684;2023-07-31T09:53:37;6.93;;;3.25;;
60370;SDS011;48550;40.588;49.684;2023-07-31T09:56:03;7.88;;;3.00;;
60370;SDS011;48550;40.588;49.684;2023-07-31T09:58:29;8.25;;;3.63;;
60370;SDS011;48550;40.588;49.684;2023-07-31T10:00:55;7.38;;;3.10;;
60370;SDS011;48550;40.588;49.684;2023-07-31T10:03:22;8.80;;;3.17;;
60370;SDS011;48550;40.588;49.684;2023-07-31T10:05:49;9.55;;;3.45;;
60370;SDS011;48550;40.588;49.684;2023-07-31T10:08:15;7.18;;;2.78;;
60370;SDS011;48550;40.588;49.684;2023-07-31T10:10:42;6.35;;;2.80;;
60370;SDS011;48550;40.588;49.684;2023-07-31T10:13:08;5.97;;;2.45;;
60370;SDS011;48550;40.588;49.684;2023-07-31T10:15:34;13.32;;;3.70;;
60370;SDS011;48550;40.588;49.684;2023-07-31T10:17:59;12.48;;;3.25;;
60370;SDS011;48550;40.588;49.684;2023-07-31T10:20:25;11.70;;;3.72;;
60370;SDS011;48550;40.588;49.684;2023-07-31T10:22:52;8.43;;;3.50;;
60370;SDS011;48550;40.588;49.684;2023-07-31T10:25:19;20.75;;;10.30;;
60370;SDS011;48550;40.588;49.684;2023-07-31T10:27:44;5.07;;;2.40;;
60370;SDS011;48550;40.588;49.684;2023-07-31T10:30:12;6.28;;;2.58;;
60370;SDS011;48550;40.588;49.684;2023-07-31T10:32:40;7.95;;;2.78;;
60370;SDS011;48550;40.588;49.684;2023-07-31T10:35:07;6.47;;;2.80;;
60370;SDS011;48550;40.588;49.684;2023-07-31T10:37:37;5.60;;;2.45;;
60370;SDS011;48550;40.588;49.684;2023-07-31T10:40:03;9.68;;;2.65;;
60370;SDS011;48550;40.588;49.684;2023-07-31T10:42:37;7.82;;;2.60;;
60370;SDS011;48550;40.588;49.684;2023-07-31T10:45:04;9.20;;;2.72;;
60370;SDS011;48550;40.588;49.684;2023-07-31T10:47:30;8.38;;;2.50;;
60370;SDS011;48550;40.588;49.684;2023-07-31T10:50:12;7.68;;;2.92;;
60370;SDS011;48550;40.588;49.684;2023-07-31T10:52:38;6.72;;;2.83;;
60370;SDS011;48550;40.588;49.684;2023-07-31T10:55:14;7.25;;;2.60;;
60370;SDS011;48550;40.588;49.684;2023-07-31T10:57:39;7.63;;;3.17;;
60370;SDS011;48550;40.588;49.684;2023-07-31T11:00:18;4.55;;;2.55;;
60370;SDS011;48550;40.588;49.684;2023-07-31T11:02:43;7.22;;;2.70;;
60370;SDS011;48550;40.588;49.684;2023-07-31T11:05:20;6.43;;;3.15;;
60370;SDS011;48550;40.588;49.684;2023-07-31T11:07:48;9.95;;;5.32;;
60370;SDS011;48550;40.588;49.684;2023-07-31T11:10:16;6.75;;;3.78;;
60370;SDS011;48550;40.588;49.684;2023-07-31T11:12:41;10.05;;;4.10;;
60370;SDS011;48550;40.588;49.684;2023-07-31T11:15:07;9.75;;;3.88;;
60370;SDS011;48550;40.588;49.684;2023-07-31T11:17:32;8.23;;;3.50;;
60370;SDS011;48550;40.588;49.684;2023-07-31T11:19:58;8.57;;;3.28;;
60370;SDS011;48550;40.588;49.684;2023-07-31T11:22:23;13.00;;;6.18;;
60370;SDS011;48550;40.588;49.684;2023-07-31T11:24:48;5.07;;;2.47;;
60370;SDS011;48550;40.588;49.684;2023-07-31T11:27:14;6.47;;;2.70;;
60370;SDS011;48550;40.588;49.684;2023-07-31T11:29:39;8.20;;;3.72;;
60370;SDS011;48550;40.588;49.684;2023-07-31T11:32:05;8.07;;;2.72;;
60370;SDS011;48550;40.588;49.684;2023-07-31T11:34:53;7.50;;;3.05;;
60370;SDS011;48550;40.588;49.684;2023-07-31T11:37:18;10.10;;;3.17;;
60370;SDS011;48550;40.588;49.684;2023-07-31T11:39:44;8.35;;;3.10;;
60370;SDS011;48550;40.588;49.684;2023-07-31T11:42:23;6.20;;;3.17;;
60370;SDS011;48550;40.588;49.684;2023-07-31T11:44:48;10.73;;;3.40;;
60370;SDS011;48550;40.588;49.684;2023-07-31T11:47:14;11.40;;;6.20;;
60370;SDS011;48550;40.588;49.684;2023-07-31T11:49:40;15.15;;;4.85;;
60370;SDS011;48550;40.588;49.684;2023-07-31T11:52:05;7.10;;;3.00;;
60370;SDS011;48550;40.588;49.684;2023-07-31T11:54:31;17.05;;;9.82;;
60370;SDS011;48550;40.588;49.684;2023-07-31T11:56:58;10.18;;;3.30;;
60370;SDS011;48550;40.588;49.684;2023-07-31T11:59:25;7.22;;;3.00;;
60370;SDS011;48550;40.588;49.684;2023-07-31T12:01:51;9.73;;;2.97;;
60370;SDS011;48550;40.588;49.684;2023-07-31T12:04:18;13.20;;;3.35;;
60370;SDS011;48550;40.588;49.684;2023-07-31T12:06:44;10.50;;;3.20;;
60370;SDS011;48550;40.588;49.684;2023-07-31T12:09:10;10.23;;;3.80;;
60370;SDS011;48550;40.588;49.684;2023-07-31T12:11:45;7.55;;;3.40;;
60370;SDS011;48550;40.588;49.684;2023-07-31T12:14:20;7.72;;;3.28;;
60370;SDS011;48550;40.588;49.684;2023-07-31T12:16:47;10.13;;;3.78;;
60370;SDS011;48550;40.588;49.684;2023-07-31T12:19:13;12.80;;;3.33;;
60370;SDS011;48550;40.588;49.684;2023-07-31T12:21:38;6.90;;;2.65;;
60370;SDS011;48550;40.588;49.684;2023-07-31T12:24:03;10.02;;;3.65;;
60370;SDS011;48550;40.588;49.684;2023-07-31T12:26:35;7.45;;;3.15;;
60370;SDS011;48550;40.588;49.684;2023-07-31T12:29:01;7.25;;;2.70;;
60370;SDS011;48550;40.588;49.684;2023-07-31T12:31:27;8.60;;;2.70;;
60370;SDS011;48550;40.588;49.684;2023-07-31T12:33:53;7.22;;;3.50;;
60370;SDS011;48550;40.588;49.684;2023-07-31T12:36:20;11.00;;;4.15;;
60370;SDS011;48550;40.588;49.684;2023-07-31T12:38:45;7.38;;;2.70;;
60370;SDS011;48550;40.588;49.684;2023-07-31T12:41:11;9.50;;;3.00;;
60370;SDS011;48550;40.588;49.684;2023-07-31T12:43:37;9.88;;;3.50;;
60370;SDS011;48550;40.588;49.684;2023-07-31T12:46:03;10.20;;;3.90;;
60370;SDS011;48550;40.588;49.684;2023-07-31T12:48:28;8.95;;;3.20;;
60370;SDS011;48550;40.588;49.684;2023-07-31T12:50:54;7.90;;;3.42;;
60370;SDS011;48550;40.588;49.684;2023-07-31T12:53:19;6.60;;;3.45;;
60370;SDS011;48550;40.588;49.684;2023-07-31T12:55:45;11.43;;;4.93;;
60370;SDS011;48550;40.588;49.684;2023-07-31T12:58:10;7.97;;;4.00;;
60370;SDS011;48550;40.588;49.684;2023-07-31T13:00:36;10.00;;;3.85;;
60370;SDS011;48550;40.588;49.684;2023-07-31T13:03:01;11.95;;;4.35;;
60370;SDS011;48550;40.588;49.684;2023-07-31T13:05:27;8.63;;;3.42;;
60370;SDS011;48550;40.588;49.684;2023-07-31T13:07:53;13.70;;;4.35;;
60370;SDS011;48550;40.588;49.684;2023-07-31T13:10:18;9.57;;;3.63;;
60370;SDS011;48550;40.588;49.684;2023-07-31T13:12:44;10.38;;;3.88;;
60370;SDS011;48550;40.588;49.684;2023-07-31T13:15:10;12.85;;;4.45;;
60370;SDS011;48550;40.588;49.684;2023-07-31T13:17:35;12.95;;;4.85;;
60370;SDS011;48550;40.588;49.684;2023-07-31T13:20:01;10.00;;;4.25;;
60370;SDS011;48550;40.588;49.684;2023-07-31T13:22:28;10.88;;;4.18;;
60370;SDS011;48550;40.588;49.684;2023-07-31T13:24:54;10.00;;;3.63;;
60370;SDS011;48550;40.588;49.684;2023-07-31T13:27:19;10.13;;;3.50;;
60370;SDS011;48550;40.588;49.684;2023-07-31T13:29:47;10.57;;;3.65;;
60370;SDS011;48550;40.588;49.684;2023-07-31T13:32:12;7.93;;;3.95;;
60370;SDS011;48550;40.588;49.684;2023-07-31T13:34:38;5.80;;;3.50;;
60370;SDS011;48550;40.588;49.684;2023-07-31T13:37:03;11.45;;;3.83;;
60370;SDS011;48550;40.588;49.684;2023-07-31T13:39:31;9.63;;;4.10;;
60370;SDS011;48550;40.588;49.684;2023-07-31T13:41:56;9.43;;;3.83;;
60370;SDS011;48550;40.588;49.684;2023-07-31T13:44:22;8.57;;;4.10;;
60370;SDS011;48550;40.588;49.684;2023-07-31T13:46:47;9.48;;;4.20;;
60370;SDS011;48550;40.588;49.684;2023-07-31T13:49:12;8.35;;;4.15;;
60370;SDS011;48550;40.588;49.684;2023-07-31T13:51:38;14.20;;;4.50;;
60370;SDS011;48550;40.588;49.684;2023-07-31T13:54:04;8.98;;;4.25;;
60370;SDS011;48550;40.588;49.684;2023-07-31T13:56:31;14.43;;;4.53;;
60370;SDS011;48550;40.588;49.684;2023-07-31T13:58:56;13.27;;;4.20;;
60370;SDS011;48550;40.588;49.684;2023-07-31T14:01:22;13.77;;;4.28;;
60370;SDS011;48550;40.588;49.684;2023-07-31T14:03:47;11.68;;;4.30;;
60370;SDS011;48550;40.588;49.684;2023-07-31T14:06:13;8.95;;;3.88;;
60370;SDS011;48550;40.588;49.684;2023-07-31T14:08:38;11.23;;;4.07;;
60370;SDS011;48550;40.588;49.684;2023-07-31T14:11:04;6.93;;;3.80;;
60370;SDS011;48550;40.588;49.684;2023-07-31T14:13:29;8.20;;;3.72;;
60370;SDS011;48550;40.588;49.684;2023-07-31T14:15:55;10.00;;;3.97;;
60370;SDS011;48550;40.588;49.684;2023-07-31T14:18:20;10.15;;;3.80;;
60370;SDS011;48550;40.588;49.684;2023-07-31T14:20:45;6.05;;;3.63;;
60370;SDS011;48550;40.588;49.684;2023-07-31T14:23:11;10.32;;;3.58;;
60370;SDS011;48550;40.588;49.684;2023-07-31T14:25:36;8.77;;;3.60;;
60370;SDS011;48550;40.588;49.684;2023-07-31T14:28:02;8.27;;;4.10;;
60370;SDS011;48550;40.588;49.684;2023-07-31T14:30:27;7.32;;;3.72;;
60370;SDS011;48550;40.588;49.684;2023-07-31T14:32:53;19.17;;;13.30;;
60370;SDS011;48550;40.588;49.684;2023-07-31T14:35:18;40.63;;;27.02;;